Singleton, New South Wales

4:30 AM AEST on July 24, 2016 (GMT +1000)
SINGLETON HEIGHTS | | Change Station

Elev 197 ft 32.55 °S, 151.17 °E | Updated 57 seconds ago

Clear
Clear
46.6 °F
Feels Like 47 °F
N
0.1
Wind Variable Wind from NW
Gusts 2.2 mph

Today
High -- | Low -- °F
--% Chance of Precip.
Yesterday
High -- | Low -- °F
Precip. -- in
Pressure 29.98 in
Visibility 6.2 miles
Clouds
Windchill 47 °F
Dew Point 34 °F
Humidity 61%
Rainfall 0.00 in
Snow Depth Not available.
6:50 AM 5:13 PM
Waning Gibbous, 83% visible
METAR YWLM 231800Z AUTO 30008KT 9999 // NCD 07/03 Q1015
Pressure 29.98 in
Visibility 6.2 miles
Clouds
Windchill 47 °F
Dew Point 34 °F
Humidity 61%
Rainfall 0.00 in
Snow Depth Not available.
6:50 AM 5:13 PM
Waning Gibbous, 83% visible
METAR YWLM 231800Z AUTO 30008KT 9999 // NCD 07/03 Q1015

10-Day Weather Forecast

Almanac

Astronomy

Jul. 24, 2016 Rise Set
Actual Time
Civil Twilight
Nautical Twilight
Astronomical Twilight
Moon
Length of Visible Light
Length of Day
Tomorrow will be .
, % of the Moon is Illuminated

Today's Extremes

Country Highs Country Lows

Community

WunderPhotos

Upload Photos

1,926,883 photos uploaded!

WunderBlog® & News

Nearby

Air Quality

  Air Quality AQ Index Pollutant
Not available.

Snow Depth

Station Depth Elevation

Earthquake Activity

City Distance Mag. Time & Date
Minimum magnitude displayed is 2.5.

Coastal Water Temperatures

Place Temperature

Stations

Nearby Weather Stations

Station Location Temp. Windchill Dew Point Humidity Wind Precip. Elev Updated Type